sensor_id;sensor_type;location;lat;lon;timestamp;pressure;altitude;pressure_sealevel;temperature;humidity
51315;BME280;65787;59.922;10.742;2023-02-21T00:01:50;98567.81;;;30.56;18.48
51315;BME280;65787;59.922;10.742;2023-02-21T00:04:34;98574.75;;;30.43;18.46
51315;BME280;65787;59.922;10.742;2023-02-21T00:07:19;98589.00;;;30.45;18.07
51315;BME280;65787;59.922;10.742;2023-02-21T00:10:04;98588.59;;;30.43;18.76
51315;BME280;65787;59.922;10.742;2023-02-21T00:12:48;98597.16;;;30.34;18.77
51315;BME280;65787;59.922;10.742;2023-02-21T00:15:32;98608.50;;;30.29;18.73
51315;BME280;65787;59.922;10.742;2023-02-21T00:18:16;98607.13;;;30.16;18.47
51315;BME280;65787;59.922;10.742;2023-02-21T00:21:00;98627.69;;;30.15;19.09
51315;BME280;65787;59.922;10.742;2023-02-21T00:23:45;98638.16;;;30.02;18.84
51315;BME280;65787;59.922;10.742;2023-02-21T00:26:28;98647.97;;;29.99;19.04
51315;BME280;65787;59.922;10.742;2023-02-21T00:29:13;98660.97;;;29.95;19.12
51315;BME280;65787;59.922;10.742;2023-02-21T00:31:57;98651.59;;;29.80;19.30
51315;BME280;65787;59.922;10.742;2023-02-21T00:34:41;98671.41;;;29.82;19.25
51315;BME280;65787;59.922;10.742;2023-02-21T00:37:25;98675.34;;;29.81;19.02
51315;BME280;65787;59.922;10.742;2023-02-21T00:40:13;98692.25;;;29.76;19.03
51315;BME280;65787;59.922;10.742;2023-02-21T00:42:58;98705.91;;;29.69;19.10
51315;BME280;65787;59.922;10.742;2023-02-21T00:45:42;98703.06;;;29.65;18.86
51315;BME280;65787;59.922;10.742;2023-02-21T00:48:27;98716.47;;;29.63;18.95
51315;BME280;65787;59.922;10.742;2023-02-21T00:51:10;98724.97;;;29.54;19.57
51315;BME280;65787;59.922;10.742;2023-02-21T00:53:54;98736.41;;;29.53;19.52
51315;BME280;65787;59.922;10.742;2023-02-21T00:56:38;98742.69;;;29.50;19.49
51315;BME280;65787;59.922;10.742;2023-02-21T00:59:22;98737.72;;;29.40;19.62
51315;BME280;65787;59.922;10.742;2023-02-21T01:02:06;98761.25;;;29.49;19.55
51315;BME280;65787;59.922;10.742;2023-02-21T01:04:50;98768.19;;;29.43;19.22
51315;BME280;65787;59.922;10.742;2023-02-21T01:07:34;98783.94;;;29.39;19.46
51315;BME280;65787;59.922;10.742;2023-02-21T01:10:18;98791.63;;;29.30;19.59
51315;BME280;65787;59.922;10.742;2023-02-21T01:13:02;98812.50;;;29.27;19.69
51315;BME280;65787;59.922;10.742;2023-02-21T01:15:47;98804.41;;;29.19;19.31
51315;BME280;65787;59.922;10.742;2023-02-21T01:18:31;98803.75;;;29.09;19.37
51315;BME280;65787;59.922;10.742;2023-02-21T01:21:16;98833.94;;;29.14;19.73
51315;BME280;65787;59.922;10.742;2023-02-21T01:24:01;98828.28;;;29.11;19.79
51315;BME280;65787;59.922;10.742;2023-02-21T01:26:45;98839.09;;;29.16;19.53
51315;BME280;65787;59.922;10.742;2023-02-21T01:29:29;98845.00;;;29.14;19.66
51315;BME280;65787;59.922;10.742;2023-02-21T01:32:13;98867.34;;;29.09;19.32
51315;BME280;65787;59.922;10.742;2023-02-21T01:34:57;98840.06;;;28.92;19.62
51315;BME280;65787;59.922;10.742;2023-02-21T01:37:41;98874.75;;;29.05;19.68
51315;BME280;65787;59.922;10.742;2023-02-21T01:40:25;98880.97;;;29.02;19.58
51315;BME280;65787;59.922;10.742;2023-02-21T01:43:20;98894.44;;;29.04;19.73
51315;BME280;65787;59.922;10.742;2023-02-21T01:46:05;98906.75;;;29.06;19.55
51315;BME280;65787;59.922;10.742;2023-02-21T01:48:51;98914.69;;;29.08;19.42
51315;BME280;65787;59.922;10.742;2023-02-21T01:51:40;98912.50;;;29.13;19.14
51315;BME280;65787;59.922;10.742;2023-02-21T01:54:29;98921.38;;;29.07;19.60
51315;BME280;65787;59.922;10.742;2023-02-21T01:57:14;98917.81;;;28.90;19.32
51315;BME280;65787;59.922;10.742;2023-02-21T01:59:59;98936.63;;;29.01;19.18
51315;BME280;65787;59.922;10.742;2023-02-21T02:02:57;98949.19;;;28.98;19.14
51315;BME280;65787;59.922;10.742;2023-02-21T02:05:48;98952.56;;;28.91;19.42
51315;BME280;65787;59.922;10.742;2023-02-21T02:08:33;98956.59;;;28.94;19.49
51315;BME280;65787;59.922;10.742;2023-02-21T02:11:27;98964.50;;;28.95;19.45
51315;BME280;65787;59.922;10.742;2023-02-21T02:14:30;98976.44;;;28.84;19.62
51315;BME280;65787;59.922;10.742;2023-02-21T02:20:10;98995.56;;;28.76;19.52
51315;BME280;65787;59.922;10.742;2023-02-21T02:31:15;99023.56;;;28.75;19.69
51315;BME280;65787;59.922;10.742;2023-02-21T02:33:59;99007.84;;;28.51;19.48
51315;BME280;65787;59.922;10.742;2023-02-21T02:36:38;99034.78;;;28.54;19.37
51315;BME280;65787;59.922;10.742;2023-02-21T02:39:45;99054.91;;;28.67;19.60
51315;BME280;65787;59.922;10.742;2023-02-21T02:42:22;99062.19;;;28.59;19.41
51315;BME280;65787;59.922;10.742;2023-02-21T02:44:59;99036.97;;;28.36;19.31
51315;BME280;65787;59.922;10.742;2023-02-21T02:47:33;99086.69;;;28.61;19.58
51315;BME280;65787;59.922;10.742;2023-02-21T02:50:00;99095.66;;;28.57;19.48
51315;BME280;65787;59.922;10.742;2023-02-21T02:52:27;99102.34;;;28.56;19.29
51315;BME280;65787;59.922;10.742;2023-02-21T02:55:01;99089.22;;;28.41;19.59
51315;BME280;65787;59.922;10.742;2023-02-21T02:57:29;99118.81;;;28.53;19.33
51315;BME280;65787;59.922;10.742;2023-02-21T03:00:06;99108.88;;;28.52;19.33
51315;BME280;65787;59.922;10.742;2023-02-21T03:08:21;99154.59;;;28.49;19.52
51315;BME280;65787;59.922;10.742;2023-02-21T03:16:22;99166.44;;;28.25;19.51
51315;BME280;65787;59.922;10.742;2023-02-21T03:18:53;99195.31;;;28.40;19.62
51315;BME280;65787;59.922;10.742;2023-02-21T03:21:26;99193.69;;;28.39;19.54
51315;BME280;65787;59.922;10.742;2023-02-21T03:23:56;99201.19;;;28.38;19.56
51315;BME280;65787;59.922;10.742;2023-02-21T03:26:26;99209.34;;;28.35;19.65
51315;BME280;65787;59.922;10.742;2023-02-21T03:28:53;99223.97;;;28.35;19.71
51315;BME280;65787;59.922;10.742;2023-02-21T03:31:20;99234.41;;;28.30;19.41
51315;BME280;65787;59.922;10.742;2023-02-21T03:33:48;99239.34;;;28.24;19.79
51315;BME280;65787;59.922;10.742;2023-02-21T03:36:14;99238.66;;;28.15;19.55
51315;BME280;65787;59.922;10.742;2023-02-21T03:38:40;99252.56;;;28.18;19.31
51315;BME280;65787;59.922;10.742;2023-02-21T03:41:07;99266.84;;;28.21;19.57
51315;BME280;65787;59.922;10.742;2023-02-21T03:43:33;99267.19;;;28.19;19.81
51315;BME280;65787;59.922;10.742;2023-02-21T03:45:58;99275.00;;;28.17;19.45
51315;BME280;65787;59.922;10.742;2023-02-21T03:48:24;99264.28;;;28.15;19.50
51315;BME280;65787;59.922;10.742;2023-02-21T03:50:49;99273.75;;;28.14;19.59
51315;BME280;65787;59.922;10.742;2023-02-21T03:53:15;99294.75;;;28.07;19.49
51315;BME280;65787;59.922;10.742;2023-02-21T03:55:40;99302.34;;;28.10;19.63
51315;BME280;65787;59.922;10.742;2023-02-21T03:58:05;99285.63;;;27.94;19.59
51315;BME280;65787;59.922;10.742;2023-02-21T04:00:31;99284.06;;;27.84;19.71
51315;BME280;65787;59.922;10.742;2023-02-21T04:02:56;99339.06;;;28.10;19.51
51315;BME280;65787;59.922;10.742;2023-02-21T04:05:22;99346.97;;;28.12;19.60
51315;BME280;65787;59.922;10.742;2023-02-21T04:07:47;99352.41;;;28.08;19.49
51315;BME280;65787;59.922;10.742;2023-02-21T04:10:13;99326.47;;;27.79;19.72
51315;BME280;65787;59.922;10.742;2023-02-21T04:12:38;99361.41;;;27.96;19.58
51315;BME280;65787;59.922;10.742;2023-02-21T04:15:04;99368.22;;;27.99;19.51
51315;BME280;65787;59.922;10.742;2023-02-21T04:17:29;99372.91;;;27.98;19.40
51315;BME280;65787;59.922;10.742;2023-02-21T04:19:55;99388.34;;;27.99;19.42
51315;BME280;65787;59.922;10.742;2023-02-21T04:22:20;99396.97;;;27.98;19.62
51315;BME280;65787;59.922;10.742;2023-02-21T04:24:46;99386.28;;;27.88;19.37
51315;BME280;65787;59.922;10.742;2023-02-21T04:27:13;99409.13;;;27.97;19.45
51315;BME280;65787;59.922;10.742;2023-02-21T04:29:38;99417.78;;;27.95;19.37
51315;BME280;65787;59.922;10.742;2023-02-21T04:32:04;99419.03;;;27.98;19.36
51315;BME280;65787;59.922;10.742;2023-02-21T04:34:29;99415.66;;;27.92;19.22
51315;BME280;65787;59.922;10.742;2023-02-21T04:36:55;99433.16;;;27.96;19.40
51315;BME280;65787;59.922;10.742;2023-02-21T04:39:20;99417.31;;;27.85;19.39
51315;BME280;65787;59.922;10.742;2023-02-21T04:41:45;99421.91;;;27.80;19.28
51315;BME280;65787;59.922;10.742;2023-02-21T04:44:11;99445.69;;;27.94;19.57
51315;BME280;65787;59.922;10.742;2023-02-21T04:46:37;99453.97;;;27.94;19.10
51315;BME280;65787;59.922;10.742;2023-02-21T04:49:02;99462.25;;;27.94;19.60
51315;BME280;65787;59.922;10.742;2023-02-21T04:51:28;99462.91;;;27.91;19.37
51315;BME280;65787;59.922;10.742;2023-02-21T04:53:54;99472.00;;;27.91;19.71
51315;BME280;65787;59.922;10.742;2023-02-21T04:56:22;99494.06;;;27.91;19.20
51315;BME280;65787;59.922;10.742;2023-02-21T04:58:48;99486.94;;;27.90;19.76
51315;BME280;65787;59.922;10.742;2023-02-21T05:01:15;99502.19;;;27.88;19.42
51315;BME280;65787;59.922;10.742;2023-02-21T05:03:41;99505.94;;;27.83;19.61
51315;BME280;65787;59.922;10.742;2023-02-21T05:06:07;99519.75;;;27.83;19.57
51315;BME280;65787;59.922;10.742;2023-02-21T05:08:32;99536.63;;;27.81;19.35
51315;BME280;65787;59.922;10.742;2023-02-21T05:10:57;99550.75;;;27.80;19.33
51315;BME280;65787;59.922;10.742;2023-02-21T05:13:23;99557.75;;;27.77;19.46
51315;BME280;65787;59.922;10.742;2023-02-21T05:15:48;99562.81;;;27.75;19.19
51315;BME280;65787;59.922;10.742;2023-02-21T05:18:15;99571.72;;;27.72;19.57
51315;BME280;65787;59.922;10.742;2023-02-21T05:20:49;99574.81;;;27.71;19.36
51315;BME280;65787;59.922;10.742;2023-02-21T05:23:16;99574.81;;;27.71;19.54
51315;BME280;65787;59.922;10.742;2023-02-21T05:25:43;99578.72;;;27.70;19.41
51315;BME280;65787;59.922;10.742;2023-02-21T05:28:09;99573.09;;;27.57;19.21
51315;BME280;65787;59.922;10.742;2023-02-21T05:30:34;99581.19;;;27.63;19.47
51315;BME280;65787;59.922;10.742;2023-02-21T05:33:00;99601.91;;;27.69;19.46
51315;BME280;65787;59.922;10.742;2023-02-21T05:35:25;99622.06;;;27.69;19.15
51315;BME280;65787;59.922;10.742;2023-02-21T05:37:51;99625.16;;;27.68;19.30
51315;BME280;65787;59.922;10.742;2023-02-21T05:40:16;99621.41;;;27.64;19.37
51315;BME280;65787;59.922;10.742;2023-02-21T05:42:42;99629.34;;;27.65;19.20
51315;BME280;65787;59.922;10.742;2023-02-21T05:45:08;99632.13;;;27.65;19.22
51315;BME280;65787;59.922;10.742;2023-02-21T05:47:34;99629.25;;;27.53;19.39
51315;BME280;65787;59.922;10.742;2023-02-21T05:50:00;99653.38;;;27.65;19.22
51315;BME280;65787;59.922;10.742;2023-02-21T05:52:25;99668.81;;;27.66;19.35
51315;BME280;65787;59.922;10.742;2023-02-21T05:54:51;99677.09;;;27.66;19.35
51315;BME280;65787;59.922;10.742;2023-02-21T05:57:18;99675.94;;;27.67;19.15
51315;BME280;65787;59.922;10.742;2023-02-21T05:59:43;99685.00;;;27.67;19.21
51315;BME280;65787;59.922;10.742;2023-02-21T06:02:09;99698.66;;;27.64;19.31
51315;BME280;65787;59.922;10.742;2023-02-21T06:04:34;99710.50;;;27.64;19.22
51315;BME280;65787;59.922;10.742;2023-02-21T06:07:00;99718.47;;;27.66;19.44
51315;BME280;65787;59.922;10.742;2023-02-21T06:09:25;99720.41;;;27.65;19.31
51315;BME280;65787;59.922;10.742;2023-02-21T06:11:54;99730.16;;;27.63;19.05
51315;BME280;65787;59.922;10.742;2023-02-21T06:14:20;99733.72;;;27.63;19.09
51315;BME280;65787;59.922;10.742;2023-02-21T06:16:46;99741.19;;;27.63;19.10
51315;BME280;65787;59.922;10.742;2023-02-21T06:19:12;99741.03;;;27.59;19.10
51315;BME280;65787;59.922;10.742;2023-02-21T06:21:39;99731.09;;;27.58;19.46
51315;BME280;65787;59.922;10.742;2023-02-21T06:24:06;99739.38;;;27.58;19.21
51315;BME280;65787;59.922;10.742;2023-02-21T06:26:32;99760.00;;;27.60;19.11
51315;BME280;65787;59.922;10.742;2023-02-21T06:28:58;99726.59;;;27.36;19.23
51315;BME280;65787;59.922;10.742;2023-02-21T06:31:23;99791.31;;;27.65;19.06
51315;BME280;65787;59.922;10.742;2023-02-21T06:33:49;99801.06;;;27.62;19.08
51315;BME280;65787;59.922;10.742;2023-02-21T06:36:18;99813.53;;;27.59;19.04
51315;BME280;65787;59.922;10.742;2023-02-21T06:38:48;99819.38;;;27.58;19.24
51315;BME280;65787;59.922;10.742;2023-02-21T06:41:17;99831.41;;;27.62;19.20
51315;BME280;65787;59.922;10.742;2023-02-21T06:43:42;99826.38;;;27.55;18.93
51315;BME280;65787;59.922;10.742;2023-02-21T06:46:08;99849.09;;;27.61;18.95
51315;BME280;65787;59.922;10.742;2023-02-21T06:48:33;99849.91;;;27.61;19.41
51315;BME280;65787;59.922;10.742;2023-02-21T06:50:58;99860.09;;;27.52;19.00
51315;BME280;65787;59.922;10.742;2023-02-21T06:53:24;99853.94;;;27.47;18.98
51315;BME280;65787;59.922;10.742;2023-02-21T06:55:49;99885.59;;;27.58;19.28
51315;BME280;65787;59.922;10.742;2023-02-21T06:58:15;99896.63;;;27.58;19.63
51315;BME280;65787;59.922;10.742;2023-02-21T07:00:40;99911.25;;;27.67;21.08
51315;BME280;65787;59.922;10.742;2023-02-21T07:03:06;99897.13;;;27.60;23.19
51315;BME280;65787;59.922;10.742;2023-02-21T07:05:31;99933.72;;;28.00;22.34
51315;BME280;65787;59.922;10.742;2023-02-21T07:08:01;99886.75;;;27.83;22.53
51315;BME280;65787;59.922;10.742;2023-02-21T07:10:27;99960.03;;;28.33;22.63
51315;BME280;65787;59.922;10.742;2023-02-21T07:12:52;99964.25;;;28.48;22.72
51315;BME280;65787;59.922;10.742;2023-02-21T07:15:18;99988.47;;;28.60;23.09
51315;BME280;65787;59.922;10.742;2023-02-21T07:17:43;99994.81;;;28.69;23.63
51315;BME280;65787;59.922;10.742;2023-02-21T07:20:09;99993.19;;;28.76;22.71
51315;BME280;65787;59.922;10.742;2023-02-21T07:22:35;99987.97;;;28.75;22.49
51315;BME280;65787;59.922;10.742;2023-02-21T07:25:00;100008.09;;;28.93;22.98
51315;BME280;65787;59.922;10.742;2023-02-21T07:27:25;100011.34;;;29.04;23.24
51315;BME280;65787;59.922;10.742;2023-02-21T07:29:51;100031.00;;;29.11;22.87
51315;BME280;65787;59.922;10.742;2023-02-21T07:32:16;100037.84;;;29.13;22.69
51315;BME280;65787;59.922;10.742;2023-02-21T07:34:42;100033.97;;;29.14;22.49
51315;BME280;65787;59.922;10.742;2023-02-21T07:37:08;100054.59;;;29.26;22.56
51315;BME280;65787;59.922;10.742;2023-02-21T07:39:34;100067.56;;;29.34;22.21
51315;BME280;65787;59.922;10.742;2023-02-21T07:42:00;100062.03;;;29.34;22.39
51315;BME280;65787;59.922;10.742;2023-02-21T07:44:25;100078.28;;;29.44;22.26
51315;BME280;65787;59.922;10.742;2023-02-21T07:46:50;100095.69;;;29.45;22.19
51315;BME280;65787;59.922;10.742;2023-02-21T07:49:16;100112.75;;;29.56;22.09
51315;BME280;65787;59.922;10.742;2023-02-21T07:51:41;100127.06;;;29.58;22.29
51315;BME280;65787;59.922;10.742;2023-02-21T07:54:06;100140.22;;;29.69;22.32
51315;BME280;65787;59.922;10.742;2023-02-21T07:56:32;100132.59;;;29.66;22.24
51315;BME280;65787;59.922;10.742;2023-02-21T07:58:57;100161.41;;;29.74;22.07
51315;BME280;65787;59.922;10.742;2023-02-21T08:01:23;100169.69;;;29.83;21.45
51315;BME280;65787;59.922;10.742;2023-02-21T08:03:49;100172.59;;;29.86;21.39
51315;BME280;65787;59.922;10.742;2023-02-21T08:06:14;100177.84;;;29.79;21.28
51315;BME280;65787;59.922;10.742;2023-02-21T08:08:40;100186.16;;;29.79;21.23
51315;BME280;65787;59.922;10.742;2023-02-21T08:11:06;100191.69;;;29.70;21.36
51315;BME280;65787;59.922;10.742;2023-02-21T08:13:31;100205.34;;;29.84;21.48
51315;BME280;65787;59.922;10.742;2023-02-21T08:15:57;100206.66;;;29.87;21.15
